sensor_id;sensor_type;location;lat;lon;timestamp;P1;durP1;ratioP1;P2;durP2;ratioP2
7173;SDS011;3628;48.654;8.932;2023-08-30T00:00:46;2.83;;;2.00;;
7173;SDS011;3628;48.654;8.932;2023-08-30T00:03:12;2.37;;;2.07;;
7173;SDS011;3628;48.654;8.932;2023-08-30T00:05:40;2.47;;;2.10;;
7173;SDS011;3628;48.654;8.932;2023-08-30T00:08:07;2.33;;;2.00;;
7173;SDS011;3628;48.654;8.932;2023-08-30T00:10:33;2.20;;;2.00;;
7173;SDS011;3628;48.654;8.932;2023-08-30T00:12:58;3.70;;;2.20;;
7173;SDS011;3628;48.654;8.932;2023-08-30T00:15:24;2.30;;;2.10;;
7173;SDS011;3628;48.654;8.932;2023-08-30T00:17:49;2.90;;;2.03;;
7173;SDS011;3628;48.654;8.932;2023-08-30T00:20:17;4.53;;;2.13;;
7173;SDS011;3628;48.654;8.932;2023-08-30T00:22:43;2.60;;;2.40;;
7173;SDS011;3628;48.654;8.932;2023-08-30T00:25:08;2.47;;;2.00;;
7173;SDS011;3628;48.654;8.932;2023-08-30T00:27:34;2.50;;;2.30;;
7173;SDS011;3628;48.654;8.932;2023-08-30T00:29:59;2.73;;;2.07;;
7173;SDS011;3628;48.654;8.932;2023-08-30T00:32:25;2.20;;;2.00;;
7173;SDS011;3628;48.654;8.932;2023-08-30T00:34:50;2.90;;;2.40;;
7173;SDS011;3628;48.654;8.932;2023-08-30T00:37:16;2.10;;;1.90;;
7173;SDS011;3628;48.654;8.932;2023-08-30T00:39:42;2.53;;;2.10;;
7173;SDS011;3628;48.654;8.932;2023-08-30T00:42:08;2.10;;;1.90;;
7173;SDS011;3628;48.654;8.932;2023-08-30T00:44:34;3.90;;;2.20;;
7173;SDS011;3628;48.654;8.932;2023-08-30T00:47:03;2.33;;;2.00;;
7173;SDS011;3628;48.654;8.932;2023-08-30T00:49:29;2.47;;;2.27;;
7173;SDS011;3628;48.654;8.932;2023-08-30T00:51:56;2.57;;;1.83;;
7173;SDS011;3628;48.654;8.932;2023-08-30T00:54:23;3.27;;;2.40;;
7173;SDS011;3628;48.654;8.932;2023-08-30T00:56:49;2.50;;;2.10;;
7173;SDS011;3628;48.654;8.932;2023-08-30T00:59:15;3.23;;;2.93;;
7173;SDS011;3628;48.654;8.932;2023-08-30T01:01:41;3.83;;;3.47;;
7173;SDS011;3628;48.654;8.932;2023-08-30T01:04:07;5.20;;;3.40;;
7173;SDS011;3628;48.654;8.932;2023-08-30T01:06:32;3.63;;;3.33;;
7173;SDS011;3628;48.654;8.932;2023-08-30T01:09:00;4.37;;;3.67;;
7173;SDS011;3628;48.654;8.932;2023-08-30T01:11:36;3.90;;;3.60;;
7173;SDS011;3628;48.654;8.932;2023-08-30T01:14:20;4.83;;;4.20;;
7173;SDS011;3628;48.654;8.932;2023-08-30T01:16:50;4.90;;;3.73;;
7173;SDS011;3628;48.654;8.932;2023-08-30T01:25:09;5.50;;;4.07;;
7173;SDS011;3628;48.654;8.932;2023-08-30T01:27:59;5.10;;;4.10;;
7173;SDS011;3628;48.654;8.932;2023-08-30T01:30:29;4.50;;;3.97;;
7173;SDS011;3628;48.654;8.932;2023-08-30T01:32:57;4.60;;;4.20;;
7173;SDS011;3628;48.654;8.932;2023-08-30T01:35:25;4.67;;;4.27;;
7173;SDS011;3628;48.654;8.932;2023-08-30T01:37:57;4.40;;;4.00;;
7173;SDS011;3628;48.654;8.932;2023-08-30T01:40:23;7.37;;;3.97;;
7173;SDS011;3628;48.654;8.932;2023-08-30T01:42:49;4.40;;;4.00;;
7173;SDS011;3628;48.654;8.932;2023-08-30T01:45:15;4.50;;;4.00;;
7173;SDS011;3628;48.654;8.932;2023-08-30T01:47:42;4.40;;;3.93;;
7173;SDS011;3628;48.654;8.932;2023-08-30T01:50:09;4.57;;;4.17;;
7173;SDS011;3628;48.654;8.932;2023-08-30T01:52:36;5.10;;;4.53;;
7173;SDS011;3628;48.654;8.932;2023-08-30T01:55:02;4.37;;;3.97;;
7173;SDS011;3628;48.654;8.932;2023-08-30T01:57:28;4.23;;;3.93;;
7173;SDS011;3628;48.654;8.932;2023-08-30T01:59:53;4.90;;;4.50;;
7173;SDS011;3628;48.654;8.932;2023-08-30T02:02:19;4.53;;;4.13;;
7173;SDS011;3628;48.654;8.932;2023-08-30T02:04:44;5.40;;;4.90;;
7173;SDS011;3628;48.654;8.932;2023-08-30T02:07:18;5.87;;;5.00;;
7173;SDS011;3628;48.654;8.932;2023-08-30T02:09:57;5.07;;;4.67;;
7173;SDS011;3628;48.654;8.932;2023-08-30T02:12:26;8.97;;;4.87;;
7173;SDS011;3628;48.654;8.932;2023-08-30T02:14:55;11.93;;;5.33;;
7173;SDS011;3628;48.654;8.932;2023-08-30T02:17:22;5.87;;;5.23;;
7173;SDS011;3628;48.654;8.932;2023-08-30T02:19:48;6.43;;;5.03;;
7173;SDS011;3628;48.654;8.932;2023-08-30T02:22:18;4.90;;;4.50;;
7173;SDS011;3628;48.654;8.932;2023-08-30T02:24:43;7.90;;;4.97;;
7173;SDS011;3628;48.654;8.932;2023-08-30T02:27:09;6.43;;;5.30;;
7173;SDS011;3628;48.654;8.932;2023-08-30T02:29:34;6.67;;;5.17;;
7173;SDS011;3628;48.654;8.932;2023-08-30T02:32:00;5.67;;;5.17;;
7173;SDS011;3628;48.654;8.932;2023-08-30T02:34:25;6.67;;;5.53;;
7173;SDS011;3628;48.654;8.932;2023-08-30T02:36:51;7.07;;;6.20;;
7173;SDS011;3628;48.654;8.932;2023-08-30T02:39:16;6.80;;;6.20;;
7173;SDS011;3628;48.654;8.932;2023-08-30T02:41:42;81.00;;;9.40;;
7173;SDS011;3628;48.654;8.932;2023-08-30T02:44:08;38.73;;;7.53;;
7173;SDS011;3628;48.654;8.932;2023-08-30T02:46:35;31.63;;;7.10;;
7173;SDS011;3628;48.654;8.932;2023-08-30T02:49:02;9.00;;;4.97;;
7173;SDS011;3628;48.654;8.932;2023-08-30T02:51:28;4.67;;;4.27;;
7173;SDS011;3628;48.654;8.932;2023-08-30T02:53:53;4.37;;;3.90;;
7173;SDS011;3628;48.654;8.932;2023-08-30T02:56:19;4.37;;;3.97;;
7173;SDS011;3628;48.654;8.932;2023-08-30T02:58:45;4.33;;;4.03;;
7173;SDS011;3628;48.654;8.932;2023-08-30T03:01:10;6.27;;;4.27;;
7173;SDS011;3628;48.654;8.932;2023-08-30T03:03:36;4.40;;;4.10;;
7173;SDS011;3628;48.654;8.932;2023-08-30T03:06:02;4.70;;;4.37;;
7173;SDS011;3628;48.654;8.932;2023-08-30T03:08:30;4.70;;;4.30;;
7173;SDS011;3628;48.654;8.932;2023-08-30T03:11:11;4.60;;;4.20;;
7173;SDS011;3628;48.654;8.932;2023-08-30T03:13:37;5.73;;;4.27;;
7173;SDS011;3628;48.654;8.932;2023-08-30T03:16:09;9.43;;;4.33;;
7173;SDS011;3628;48.654;8.932;2023-08-30T03:18:39;4.50;;;4.10;;
7173;SDS011;3628;48.654;8.932;2023-08-30T03:21:05;4.90;;;4.50;;
7173;SDS011;3628;48.654;8.932;2023-08-30T03:23:31;5.93;;;4.57;;
7173;SDS011;3628;48.654;8.932;2023-08-30T03:25:58;4.63;;;4.23;;
7173;SDS011;3628;48.654;8.932;2023-08-30T03:28:23;5.90;;;4.80;;
7173;SDS011;3628;48.654;8.932;2023-08-30T03:30:49;6.03;;;5.50;;
7173;SDS011;3628;48.654;8.932;2023-08-30T03:33:14;7.70;;;5.80;;
7173;SDS011;3628;48.654;8.932;2023-08-30T03:35:40;10.93;;;6.20;;
7173;SDS011;3628;48.654;8.932;2023-08-30T03:38:05;7.47;;;5.20;;
7173;SDS011;3628;48.654;8.932;2023-08-30T03:40:31;22.07;;;6.23;;
7173;SDS011;3628;48.654;8.932;2023-08-30T03:42:57;64.90;;;8.67;;
7173;SDS011;3628;48.654;8.932;2023-08-30T03:45:22;5.67;;;5.17;;
7173;SDS011;3628;48.654;8.932;2023-08-30T03:47:48;5.60;;;5.10;;
7173;SDS011;3628;48.654;8.932;2023-08-30T03:50:14;5.70;;;5.20;;
7173;SDS011;3628;48.654;8.932;2023-08-30T03:52:40;5.73;;;5.23;;
7173;SDS011;3628;48.654;8.932;2023-08-30T03:55:05;5.77;;;5.27;;
7173;SDS011;3628;48.654;8.932;2023-08-30T03:57:31;5.80;;;4.93;;
7173;SDS011;3628;48.654;8.932;2023-08-30T03:59:57;13.67;;;5.40;;
7173;SDS011;3628;48.654;8.932;2023-08-30T04:02:22;5.47;;;4.97;;
7173;SDS011;3628;48.654;8.932;2023-08-30T04:04:48;16.47;;;5.27;;
7173;SDS011;3628;48.654;8.932;2023-08-30T04:07:14;6.53;;;4.43;;
7173;SDS011;3628;48.654;8.932;2023-08-30T04:09:40;8.17;;;5.10;;
7173;SDS011;3628;48.654;8.932;2023-08-30T04:12:05;5.50;;;5.00;;
7173;SDS011;3628;48.654;8.932;2023-08-30T04:14:31;5.60;;;5.10;;
7173;SDS011;3628;48.654;8.932;2023-08-30T04:16:57;6.60;;;5.37;;
7173;SDS011;3628;48.654;8.932;2023-08-30T04:19:23;5.83;;;5.23;;
7173;SDS011;3628;48.654;8.932;2023-08-30T04:21:48;6.33;;;5.13;;
7173;SDS011;3628;48.654;8.932;2023-08-30T04:24:14;5.93;;;5.37;;
7173;SDS011;3628;48.654;8.932;2023-08-30T04:26:40;6.90;;;5.57;;
7173;SDS011;3628;48.654;8.932;2023-08-30T04:29:06;5.90;;;5.30;;
7173;SDS011;3628;48.654;8.932;2023-08-30T04:31:31;5.40;;;4.90;;
7173;SDS011;3628;48.654;8.932;2023-08-30T04:33:57;7.37;;;5.00;;
7173;SDS011;3628;48.654;8.932;2023-08-30T04:36:23;5.07;;;4.67;;
7173;SDS011;3628;48.654;8.932;2023-08-30T04:38:48;4.80;;;4.40;;
7173;SDS011;3628;48.654;8.932;2023-08-30T04:41:13;6.93;;;4.73;;
7173;SDS011;3628;48.654;8.932;2023-08-30T04:43:39;17.70;;;5.33;;
7173;SDS011;3628;48.654;8.932;2023-08-30T04:46:05;5.67;;;5.07;;
7173;SDS011;3628;48.654;8.932;2023-08-30T04:48:30;4.97;;;4.30;;
7173;SDS011;3628;48.654;8.932;2023-08-30T04:51:03;4.83;;;4.43;;
7173;SDS011;3628;48.654;8.932;2023-08-30T04:53:29;6.57;;;4.27;;
7173;SDS011;3628;48.654;8.932;2023-08-30T04:55:55;4.87;;;4.47;;
7173;SDS011;3628;48.654;8.932;2023-08-30T04:58:21;4.40;;;4.00;;
7173;SDS011;3628;48.654;8.932;2023-08-30T05:00:46;8.73;;;4.30;;
7173;SDS011;3628;48.654;8.932;2023-08-30T05:03:12;4.20;;;3.90;;
7173;SDS011;3628;48.654;8.932;2023-08-30T05:05:37;5.50;;;4.40;;
7173;SDS011;3628;48.654;8.932;2023-08-30T05:08:03;4.33;;;3.93;;
7173;SDS011;3628;48.654;8.932;2023-08-30T05:10:29;4.27;;;3.97;;
7173;SDS011;3628;48.654;8.932;2023-08-30T05:12:54;5.20;;;4.70;;
7173;SDS011;3628;48.654;8.932;2023-08-30T05:15:20;5.27;;;4.50;;
7173;SDS011;3628;48.654;8.932;2023-08-30T05:17:46;4.47;;;4.00;;
7173;SDS011;3628;48.654;8.932;2023-08-30T05:20:12;4.90;;;4.50;;
7173;SDS011;3628;48.654;8.932;2023-08-30T05:22:38;4.33;;;3.93;;
7173;SDS011;3628;48.654;8.932;2023-08-30T05:25:03;4.63;;;4.23;;
7173;SDS011;3628;48.654;8.932;2023-08-30T05:27:29;4.43;;;4.03;;
7173;SDS011;3628;48.654;8.932;2023-08-30T05:29:55;5.03;;;3.70;;
7173;SDS011;3628;48.654;8.932;2023-08-30T05:32:21;4.60;;;4.13;;
7173;SDS011;3628;48.654;8.932;2023-08-30T05:34:46;4.60;;;4.20;;
7173;SDS011;3628;48.654;8.932;2023-08-30T05:37:12;4.33;;;3.93;;
7173;SDS011;3628;48.654;8.932;2023-08-30T05:39:38;4.20;;;3.90;;
7173;SDS011;3628;48.654;8.932;2023-08-30T05:42:03;4.43;;;4.03;;
7173;SDS011;3628;48.654;8.932;2023-08-30T05:44:29;7.40;;;4.67;;
7173;SDS011;3628;48.654;8.932;2023-08-30T05:46:55;4.57;;;4.17;;
7173;SDS011;3628;48.654;8.932;2023-08-30T05:49:20;4.60;;;4.20;;
7173;SDS011;3628;48.654;8.932;2023-08-30T05:51:46;5.17;;;4.67;;
7173;SDS011;3628;48.654;8.932;2023-08-30T05:54:12;4.60;;;4.20;;
7173;SDS011;3628;48.654;8.932;2023-08-30T05:56:38;4.77;;;4.37;;
7173;SDS011;3628;48.654;8.932;2023-08-30T05:59:03;6.47;;;4.50;;
7173;SDS011;3628;48.654;8.932;2023-08-30T06:01:29;5.20;;;4.80;;
7173;SDS011;3628;48.654;8.932;2023-08-30T06:03:54;7.67;;;5.37;;
7173;SDS011;3628;48.654;8.932;2023-08-30T06:06:20;4.87;;;4.47;;
7173;SDS011;3628;48.654;8.932;2023-08-30T06:08:46;5.33;;;4.83;;
7173;SDS011;3628;48.654;8.932;2023-08-30T06:11:11;5.90;;;5.30;;
7173;SDS011;3628;48.654;8.932;2023-08-30T06:13:37;6.93;;;6.00;;
7173;SDS011;3628;48.654;8.932;2023-08-30T06:16:03;7.37;;;6.67;;
7173;SDS011;3628;48.654;8.932;2023-08-30T06:18:29;7.47;;;6.77;;
7173;SDS011;3628;48.654;8.932;2023-08-30T06:20:55;8.57;;;6.73;;
7173;SDS011;3628;48.654;8.932;2023-08-30T06:23:21;7.23;;;6.53;;
7173;SDS011;3628;48.654;8.932;2023-08-30T06:25:53;7.03;;;6.43;;
7173;SDS011;3628;48.654;8.932;2023-08-30T06:28:22;7.33;;;6.63;;
7173;SDS011;3628;48.654;8.932;2023-08-30T06:30:47;6.90;;;6.20;;
7173;SDS011;3628;48.654;8.932;2023-08-30T06:33:13;7.50;;;6.43;;
7173;SDS011;3628;48.654;8.932;2023-08-30T06:35:39;9.87;;;7.37;;
7173;SDS011;3628;48.654;8.932;2023-08-30T06:38:05;6.57;;;5.87;;
7173;SDS011;3628;48.654;8.932;2023-08-30T06:40:30;8.03;;;6.57;;
7173;SDS011;3628;48.654;8.932;2023-08-30T06:42:57;6.63;;;6.03;;
7173;SDS011;3628;48.654;8.932;2023-08-30T06:45:24;6.00;;;5.50;;
7173;SDS011;3628;48.654;8.932;2023-08-30T06:47:49;6.00;;;5.33;;
7173;SDS011;3628;48.654;8.932;2023-08-30T06:50:16;5.30;;;4.90;;
7173;SDS011;3628;48.654;8.932;2023-08-30T06:52:42;5.20;;;4.80;;
7173;SDS011;3628;48.654;8.932;2023-08-30T06:55:07;6.70;;;6.03;;
7173;SDS011;3628;48.654;8.932;2023-08-30T06:57:33;5.23;;;4.80;;
7173;SDS011;3628;48.654;8.932;2023-08-30T06:59:58;4.93;;;4.53;;
7173;SDS011;3628;48.654;8.932;2023-08-30T07:02:30;4.93;;;4.53;;
7173;SDS011;3628;48.654;8.932;2023-08-30T07:04:56;5.90;;;4.53;;
7173;SDS011;3628;48.654;8.932;2023-08-30T07:07:21;5.27;;;4.77;;
7173;SDS011;3628;48.654;8.932;2023-08-30T07:09:47;5.17;;;4.67;;
7173;SDS011;3628;48.654;8.932;2023-08-30T07:12:12;4.80;;;4.33;;
7173;SDS011;3628;48.654;8.932;2023-08-30T07:14:38;4.77;;;4.27;;
7173;SDS011;3628;48.654;8.932;2023-08-30T07:17:03;4.50;;;4.10;;
7173;SDS011;3628;48.654;8.932;2023-08-30T07:19:29;5.53;;;4.53;;
7173;SDS011;3628;48.654;8.932;2023-08-30T07:21:54;4.40;;;4.00;;
7173;SDS011;3628;48.654;8.932;2023-08-30T07:24:20;4.90;;;4.50;;
7173;SDS011;3628;48.654;8.932;2023-08-30T07:26:47;4.23;;;3.83;;
7173;SDS011;3628;48.654;8.932;2023-08-30T07:29:13;4.97;;;4.40;;
7173;SDS011;3628;48.654;8.932;2023-08-30T07:31:38;4.97;;;3.80;;
7173;SDS011;3628;48.654;8.932;2023-08-30T07:34:06;4.57;;;4.10;;
7173;SDS011;3628;48.654;8.932;2023-08-30T07:36:33;4.73;;;4.33;;
7173;SDS011;3628;48.654;8.932;2023-08-30T07:38:58;4.43;;;4.03;;
7173;SDS011;3628;48.654;8.932;2023-08-30T07:41:24;4.17;;;3.87;;
7173;SDS011;3628;48.654;8.932;2023-08-30T07:43:49;3.73;;;3.43;;
7173;SDS011;3628;48.654;8.932;2023-08-30T07:46:15;4.13;;;3.73;;
7173;SDS011;3628;48.654;8.932;2023-08-30T07:48:40;4.70;;;3.23;;
7173;SDS011;3628;48.654;8.932;2023-08-30T07:51:06;3.73;;;3.43;;
7173;SDS011;3628;48.654;8.932;2023-08-30T07:53:31;3.40;;;3.20;;
7173;SDS011;3628;48.654;8.932;2023-08-30T07:55:57;3.70;;;3.23;;
7173;SDS011;3628;48.654;8.932;2023-08-30T07:58:22;3.53;;;3.23;;
7173;SDS011;3628;48.654;8.932;2023-08-30T08:00:54;3.73;;;3.30;;
7173;SDS011;3628;48.654;8.932;2023-08-30T08:03:20;2.97;;;2.63;;
7173;SDS011;3628;48.654;8.932;2023-08-30T08:05:46;2.90;;;2.70;;
7173;SDS011;3628;48.654;8.932;2023-08-30T08:08:12;2.90;;;2.70;;
7173;SDS011;3628;48.654;8.932;2023-08-30T08:10:39;3.07;;;2.80;;
7173;SDS011;3628;48.654;8.932;2023-08-30T08:13:05;3.67;;;2.30;;
7173;SDS011;3628;48.654;8.932;2023-08-30T08:15:30;2.60;;;2.40;;
7173;SDS011;3628;48.654;8.932;2023-08-30T08:17:57;2.30;;;2.20;;
7173;SDS011;3628;48.654;8.932;2023-08-30T08:20:22;2.83;;;2.27;;
7173;SDS011;3628;48.654;8.932;2023-08-30T08:22:48;2.43;;;2.23;;
7173;SDS011;3628;48.654;8.932;2023-08-30T08:25:13;2.50;;;2.30;;
7173;SDS011;3628;48.654;8.932;2023-08-30T08:27:40;3.37;;;2.30;;
7173;SDS011;3628;48.654;8.932;2023-08-30T08:30:06;2.20;;;2.10;;
7173;SDS011;3628;48.654;8.932;2023-08-30T08:32:32;2.43;;;2.27;;
7173;SDS011;3628;48.654;8.932;2023-08-30T08:34:58;3.30;;;2.40;;
7173;SDS011;3628;48.654;8.932;2023-08-30T08:37:24;2.63;;;2.10;;
7173;SDS011;3628;48.654;8.932;2023-08-30T08:39:49;2.37;;;1.97;;
7173;SDS011;3628;48.654;8.932;2023-08-30T08:42:19;2.30;;;2.10;;
7173;SDS011;3628;48.654;8.932;2023-08-30T08:44:50;2.13;;;1.93;;
7173;SDS011;3628;48.654;8.932;2023-08-30T08:47:19;1.67;;;1.57;;
7173;SDS011;3628;48.654;8.932;2023-08-30T08:49:45;3.10;;;1.92;;
7173;SDS011;3628;48.654;8.932;2023-08-30T08:52:13;2.37;;;2.10;;
7173;SDS011;3628;48.654;8.932;2023-08-30T08:54:40;2.00;;;1.80;;
7173;SDS011;3628;48.654;8.932;2023-08-30T08:57:08;1.90;;;1.80;;
7173;SDS011;3628;48.654;8.932;2023-08-30T08:59:34;2.00;;;1.80;;
7173;SDS011;3628;48.654;8.932;2023-08-30T09:02:00;3.75;;;2.03;;
7173;SDS011;3628;48.654;8.932;2023-08-30T09:04:26;2.22;;;2.03;;
7173;SDS011;3628;48.654;8.932;2023-08-30T09:06:55;2.45;;;1.98;;
7173;SDS011;3628;48.654;8.932;2023-08-30T09:09:20;1.90;;;1.80;;
7173;SDS011;3628;48.654;8.932;2023-08-30T09:11:48;2.05;;;1.80;;
7173;SDS011;3628;48.654;8.932;2023-08-30T09:14:13;1.92;;;1.80;;
7173;SDS011;3628;48.654;8.932;2023-08-30T09:16:39;2.90;;;2.00;;
7173;SDS011;3628;48.654;8.932;2023-08-30T09:19:04;2.70;;;1.98;;
7173;SDS011;3628;48.654;8.932;2023-08-30T09:21:30;2.35;;;1.80;;
7173;SDS011;3628;48.654;8.932;2023-08-30T09:24:02;1.85;;;1.70;;
7173;SDS011;3628;48.654;8.932;2023-08-30T09:26:30;3.08;;;1.77;;
7173;SDS011;3628;48.654;8.932;2023-08-30T09:29:03;1.65;;;1.55;;
7173;SDS011;3628;48.654;8.932;2023-08-30T09:31:33;1.83;;;1.52;;
7173;SDS011;3628;48.654;8.932;2023-08-30T09:33:59;2.10;;;1.42;;
7173;SDS011;3628;48.654;8.932;2023-08-30T09:36:26;2.35;;;1.50;;
7173;SDS011;3628;48.654;8.932;2023-08-30T09:38:57;1.75;;;1.65;;
7173;SDS011;3628;48.654;8.932;2023-08-30T09:41:24;2.20;;;1.58;;
7173;SDS011;3628;48.654;8.932;2023-08-30T09:43:50;3.42;;;1.80;;
7173;SDS011;3628;48.654;8.932;2023-08-30T09:46:15;1.88;;;1.77;;
7173;SDS011;3628;48.654;8.932;2023-08-30T09:48:41;2.20;;;1.60;;
7173;SDS011;3628;48.654;8.932;2023-08-30T09:51:07;3.63;;;2.20;;
7173;SDS011;3628;48.654;8.932;2023-08-30T09:53:40;1.70;;;1.60;;
7173;SDS011;3628;48.654;8.932;2023-08-30T09:56:10;1.67;;;1.58;;
7173;SDS011;3628;48.654;8.932;2023-08-30T09:58:38;1.75;;;1.65;;
7173;SDS011;3628;48.654;8.932;2023-08-30T10:01:05;2.03;;;1.83;;
7173;SDS011;3628;48.654;8.932;2023-08-30T10:03:32;1.83;;;1.70;;
7173;SDS011;3628;48.654;8.932;2023-08-30T10:05:59;1.60;;;1.50;;
7173;SDS011;3628;48.654;8.932;2023-08-30T10:08:28;1.67;;;1.42;;
7173;SDS011;3628;48.654;8.932;2023-08-30T10:10:56;3.13;;;1.60;;
7173;SDS011;3628;48.654;8.932;2023-08-30T10:13:23;2.00;;;1.80;;
7173;SDS011;3628;48.654;8.932;2023-08-30T10:15:50;2.97;;;1.83;;
7173;SDS011;3628;48.654;8.932;2023-08-30T10:18:23;2.72;;;1.40;;
7173;SDS011;3628;48.654;8.932;2023-08-30T10:20:53;1.52;;;1.25;;
7173;SDS011;3628;48.654;8.932;2023-08-30T10:23:20;1.40;;;1.30;;
7173;SDS011;3628;48.654;8.932;2023-08-30T10:25:48;1.30;;;1.20;;
7173;SDS011;3628;48.654;8.932;2023-08-30T10:28:15;1.42;;;1.33;;
7173;SDS011;3628;48.654;8.932;2023-08-30T10:30:42;2.58;;;1.30;;
7173;SDS011;3628;48.654;8.932;2023-08-30T10:33:12;2.72;;;1.30;;
7173;SDS011;3628;48.654;8.932;2023-08-30T10:35:46;1.65;;;1.50;;
7173;SDS011;3628;48.654;8.932;2023-08-30T10:38:26;1.38;;;1.27;;
7173;SDS011;3628;48.654;8.932;2023-08-30T10:41:05;2.25;;;1.70;;
7173;SDS011;3628;48.654;8.932;2023-08-30T10:43:34;1.58;;;1.40;;
7173;SDS011;3628;48.654;8.932;2023-08-30T10:46:04;1.40;;;1.30;;
7173;SDS011;3628;48.654;8.932;2023-08-30T10:48:36;2.15;;;1.38;;
7173;SDS011;3628;48.654;8.932;2023-08-30T10:51:02;1.55;;;1.10;;
7173;SDS011;3628;48.654;8.932;2023-08-30T10:53:30;2.13;;;1.50;;
7173;SDS011;3628;48.654;8.932;2023-08-30T10:56:02;1.98;;;1.30;;
7173;SDS011;3628;48.654;8.932;2023-08-30T10:58:41;1.08;;;0.98;;
7173;SDS011;3628;48.654;8.932;2023-08-30T11:01:10;1.67;;;1.27;;
7173;SDS011;3628;48.654;8.932;2023-08-30T11:03:40;2.25;;;1.15;;
7173;SDS011;3628;48.654;8.932;2023-08-30T11:06:07;1.33;;;1.20;;
7173;SDS011;3628;48.654;8.932;2023-08-30T11:08:32;2.20;;;1.20;;
7173;SDS011;3628;48.654;8.932;2023-08-30T11:11:02;1.35;;;1.25;;
7173;SDS011;3628;48.654;8.932;2023-08-30T11:13:29;1.25;;;1.15;;
7173;SDS011;3628;48.654;8.932;2023-08-30T11:15:59;1.38;;;1.27;;
7173;SDS011;3628;48.654;8.932;2023-08-30T11:18:29;1.50;;;1.40;;
7173;SDS011;3628;48.654;8.932;2023-08-30T11:21:01;1.90;;;1.30;;
7173;SDS011;3628;48.654;8.932;2023-08-30T11:23:27;0.85;;;0.85;;
7173;SDS011;3628;48.654;8.932;2023-08-30T11:25:53;0.70;;;0.70;;
7173;SDS011;3628;48.654;8.932;2023-08-30T11:28:22;0.90;;;0.82;;
7173;SDS011;3628;48.654;8.932;2023-08-30T11:30:54;3.08;;;0.90;;
7173;SDS011;3628;48.654;8.932;2023-08-30T11:33:20;2.75;;;1.52;;
7173;SDS011;3628;48.654;8.932;2023-08-30T11:35:48;4.07;;;1.70;;
7173;SDS011;3628;48.654;8.932;2023-08-30T11:38:16;2.13;;;1.10;;
7173;SDS011;3628;48.654;8.932;2023-08-30T11:40:42;2.92;;;1.42;;
7173;SDS011;3628;48.654;8.932;2023-08-30T11:43:08;5.45;;;1.38;;
7173;SDS011;3628;48.654;8.932;2023-08-30T11:45:35;2.72;;;1.30;;
7173;SDS011;3628;48.654;8.932;2023-08-30T11:48:00;1.38;;;1.27;;
7173;SDS011;3628;48.654;8.932;2023-08-30T11:50:26;1.37;;;1.00;;
7173;SDS011;3628;48.654;8.932;2023-08-30T11:52:53;2.83;;;1.17;;
7173;SDS011;3628;48.654;8.932;2023-08-30T11:55:22;1.57;;;1.47;;
7173;SDS011;3628;48.654;8.932;2023-08-30T11:57:49;1.43;;;1.33;;
7173;SDS011;3628;48.654;8.932;2023-08-30T12:00:15;1.50;;;1.40;;
7173;SDS011;3628;48.654;8.932;2023-08-30T12:02:44;1.53;;;1.43;;
7173;SDS011;3628;48.654;8.932;2023-08-30T12:05:12;1.60;;;1.50;;
7173;SDS011;3628;48.654;8.932;2023-08-30T12:07:38;1.50;;;1.40;;
7173;SDS011;3628;48.654;8.932;2023-08-30T12:10:08;2.63;;;1.70;;
7173;SDS011;3628;48.654;8.932;2023-08-30T12:12:35;1.50;;;1.40;;
7173;SDS011;3628;48.654;8.932;2023-08-30T12:15:09;2.23;;;1.90;;
7173;SDS011;3628;48.654;8.932;2023-08-30T12:17:36;2.03;;;1.77;;
7173;SDS011;3628;48.654;8.932;2023-08-30T12:20:02;2.50;;;1.60;;
7173;SDS011;3628;48.654;8.932;2023-08-30T12:22:41;1.77;;;1.67;;
7173;SDS011;3628;48.654;8.932;2023-08-30T12:25:16;2.22;;;1.50;;
7173;SDS011;3628;48.654;8.932;2023-08-30T12:27:46;1.75;;;1.38;;
7173;SDS011;3628;48.654;8.932;2023-08-30T12:30:12;2.15;;;1.92;;
7173;SDS011;3628;48.654;8.932;2023-08-30T12:32:39;2.13;;;1.33;;
7173;SDS011;3628;48.654;8.932;2023-08-30T12:35:05;1.17;;;1.08;;
7173;SDS011;3628;48.654;8.932;2023-08-30T12:37:30;1.67;;;1.45;;
7173;SDS011;3628;48.654;8.932;2023-08-30T12:39:56;2.83;;;1.48;;
7173;SDS011;3628;48.654;8.932;2023-08-30T12:42:21;1.30;;;1.17;;
7173;SDS011;3628;48.654;8.932;2023-08-30T12:44:47;4.13;;;1.20;;
7173;SDS011;3628;48.654;8.932;2023-08-30T12:47:12;1.30;;;1.20;;
7173;SDS011;3628;48.654;8.932;2023-08-30T12:49:39;2.58;;;1.40;;
7173;SDS011;3628;48.654;8.932;2023-08-30T12:52:05;1.30;;;1.20;;
7173;SDS011;3628;48.654;8.932;2023-08-30T12:54:31;2.20;;;1.02;;
7173;SDS011;3628;48.654;8.932;2023-08-30T12:56:56;1.65;;;1.15;;
7173;SDS011;3628;48.654;8.932;2023-08-30T12:59:21;1.20;;;1.10;;
7173;SDS011;3628;48.654;8.932;2023-08-30T13:01:47;1.58;;;1.08;;
7173;SDS011;3628;48.654;8.932;2023-08-30T13:04:12;1.00;;;0.90;;
7173;SDS011;3628;48.654;8.932;2023-08-30T13:06:38;1.25;;;0.98;;
7173;SDS011;3628;48.654;8.932;2023-08-30T13:09:03;0.85;;;0.85;;
7173;SDS011;3628;48.654;8.932;2023-08-30T13:11:29;1.02;;;0.85;;
7173;SDS011;3628;48.654;8.932;2023-08-30T13:13:57;0.80;;;0.80;;
7173;SDS011;3628;48.654;8.932;2023-08-30T13:16:23;0.73;;;0.73;;
7173;SDS011;3628;48.654;8.932;2023-08-30T13:18:49;1.75;;;1.00;;
7173;SDS011;3628;48.654;8.932;2023-08-30T13:21:15;0.60;;;0.60;;
7173;SDS011;3628;48.654;8.932;2023-08-30T13:23:40;0.77;;;0.77;;
7173;SDS011;3628;48.654;8.932;2023-08-30T13:26:06;1.95;;;0.93;;
7173;SDS011;3628;48.654;8.932;2023-08-30T13:28:32;0.60;;;0.60;;
7173;SDS011;3628;48.654;8.932;2023-08-30T13:30:58;1.38;;;0.80;;
7173;SDS011;3628;48.654;8.932;2023-08-30T13:33:23;1.25;;;0.70;;
7173;SDS011;3628;48.654;8.932;2023-08-30T13:35:51;2.35;;;0.73;;
7173;SDS011;3628;48.654;8.932;2023-08-30T13:38:17;0.82;;;0.82;;
7173;SDS011;3628;48.654;8.932;2023-08-30T13:40:43;0.90;;;0.80;;
7173;SDS011;3628;48.654;8.932;2023-08-30T13:43:10;0.68;;;0.68;;
7173;SDS011;3628;48.654;8.932;2023-08-30T13:45:35;0.60;;;0.60;;
7173;SDS011;3628;48.654;8.932;2023-08-30T13:48:01;1.75;;;0.70;;
7173;SDS011;3628;48.654;8.932;2023-08-30T13:50:27;1.05;;;0.75;;
7173;SDS011;3628;48.654;8.932;2023-08-30T13:52:55;0.70;;;0.70;;
7173;SDS011;3628;48.654;8.932;2023-08-30T13:55:21;1.25;;;0.80;;
7173;SDS011;3628;48.654;8.932;2023-08-30T13:57:47;1.90;;;0.80;;
7173;SDS011;3628;48.654;8.932;2023-08-30T14:00:13;1.42;;;0.77;;
7173;SDS011;3628;48.654;8.932;2023-08-30T14:02:39;0.70;;;0.70;;
7173;SDS011;3628;48.654;8.932;2023-08-30T14:05:04;0.77;;;0.77;;
7173;SDS011;3628;48.654;8.932;2023-08-30T14:07:30;0.70;;;0.70;;
7173;SDS011;3628;48.654;8.932;2023-08-30T14:09:56;1.40;;;0.70;;
7173;SDS011;3628;48.654;8.932;2023-08-30T14:12:22;1.33;;;0.70;;
7173;SDS011;3628;48.654;8.932;2023-08-30T14:14:48;1.73;;;0.80;;
7173;SDS011;3628;48.654;8.932;2023-08-30T14:17:13;1.58;;;0.85;;
7173;SDS011;3628;48.654;8.932;2023-08-30T14:19:39;0.73;;;0.73;;
7173;SDS011;3628;48.654;8.932;2023-08-30T14:22:04;1.88;;;0.90;;
7173;SDS011;3628;48.654;8.932;2023-08-30T14:24:31;1.40;;;0.73;;
7173;SDS011;3628;48.654;8.932;2023-08-30T14:26:57;0.80;;;0.80;;
7173;SDS011;3628;48.654;8.932;2023-08-30T14:29:23;1.40;;;0.95;;
7173;SDS011;3628;48.654;8.932;2023-08-30T14:31:48;1.02;;;0.77;;
7173;SDS011;3628;48.654;8.932;2023-08-30T14:34:14;0.70;;;0.70;;
7173;SDS011;3628;48.654;8.932;2023-08-30T14:36:39;1.42;;;0.90;;
7173;SDS011;3628;48.654;8.932;2023-08-30T14:39:07;0.70;;;0.70;;
7173;SDS011;3628;48.654;8.932;2023-08-30T14:41:34;2.03;;;1.00;;
7173;SDS011;3628;48.654;8.932;2023-08-30T14:44:01;0.80;;;0.80;;
7173;SDS011;3628;48.654;8.932;2023-08-30T14:46:28;1.00;;;0.85;;
7173;SDS011;3628;48.654;8.932;2023-08-30T14:48:54;0.93;;;0.93;;
7173;SDS011;3628;48.654;8.932;2023-08-30T14:51:19;0.60;;;0.60;;
7173;SDS011;3628;48.654;8.932;2023-08-30T14:53:45;0.73;;;0.73;;
7173;SDS011;3628;48.654;8.932;2023-08-30T14:56:11;0.90;;;0.90;;
7173;SDS011;3628;48.654;8.932;2023-08-30T14:58:36;0.95;;;0.95;;
7173;SDS011;3628;48.654;8.932;2023-08-30T15:01:02;2.72;;;0.90;;
7173;SDS011;3628;48.654;8.932;2023-08-30T15:03:29;1.50;;;1.05;;
7173;SDS011;3628;48.654;8.932;2023-08-30T15:05:55;1.25;;;0.80;;
7173;SDS011;3628;48.654;8.932;2023-08-30T15:08:21;3.05;;;0.70;;
7173;SDS011;3628;48.654;8.932;2023-08-30T15:10:47;0.80;;;0.80;;
7173;SDS011;3628;48.654;8.932;2023-08-30T15:13:13;1.00;;;0.80;;
7173;SDS011;3628;48.654;8.932;2023-08-30T15:15:39;1.20;;;0.93;;
7173;SDS011;3628;48.654;8.932;2023-08-30T15:18:04;0.82;;;0.82;;